sensor_id;sensor_type;location;lat;lon;timestamp;pressure;altitude;pressure_sealevel;temperature;humidity
49194;BME280;35029;50.804;12.866;2023-01-27T00:00:03;98043.91;;;-2.39;100.00
49194;BME280;35029;50.804;12.866;2023-01-27T00:02:41;98033.22;;;-2.47;100.00
49194;BME280;35029;50.804;12.866;2023-01-27T00:05:08;98028.34;;;-2.39;100.00
49194;BME280;35029;50.804;12.866;2023-01-27T00:07:34;98032.81;;;-2.41;100.00
49194;BME280;35029;50.804;12.866;2023-01-27T00:10:00;98022.31;;;-2.40;100.00
49194;BME280;35029;50.804;12.866;2023-01-27T00:12:26;98029.38;;;-2.42;100.00
49194;BME280;35029;50.804;12.866;2023-01-27T00:15:12;98025.84;;;-2.41;100.00
49194;BME280;35029;50.804;12.866;2023-01-27T00:17:38;97992.22;;;-2.55;100.00
49194;BME280;35029;50.804;12.866;2023-01-27T00:20:05;98016.09;;;-2.37;100.00
49194;BME280;35029;50.804;12.866;2023-01-27T00:22:31;98013.72;;;-2.53;100.00
49194;BME280;35029;50.804;12.866;2023-01-27T00:25:15;98008.63;;;-2.55;100.00
49194;BME280;35029;50.804;12.866;2023-01-27T00:27:41;97991.50;;;-2.57;100.00
49194;BME280;35029;50.804;12.866;2023-01-27T00:30:07;97963.94;;;-2.71;100.00
49194;BME280;35029;50.804;12.866;2023-01-27T00:32:33;98000.13;;;-2.44;100.00
49194;BME280;35029;50.804;12.866;2023-01-27T00:35:17;97997.81;;;-2.48;100.00
49194;BME280;35029;50.804;12.866;2023-01-27T00:37:43;98008.41;;;-2.51;100.00
49194;BME280;35029;50.804;12.866;2023-01-27T00:40:10;98009.06;;;-2.48;100.00
49194;BME280;35029;50.804;12.866;2023-01-27T00:42:36;98021.81;;;-2.45;100.00
49194;BME280;35029;50.804;12.866;2023-01-27T00:45:02;98021.59;;;-2.42;100.00
49194;BME280;35029;50.804;12.866;2023-01-27T00:47:49;98025.22;;;-2.44;100.00
49194;BME280;35029;50.804;12.866;2023-01-27T00:50:14;98007.59;;;-2.52;100.00
49194;BME280;35029;50.804;12.866;2023-01-27T00:52:41;98028.56;;;-2.42;100.00
49194;BME280;35029;50.804;12.866;2023-01-27T00:55:07;98014.03;;;-2.45;100.00
49194;BME280;35029;50.804;12.866;2023-01-27T00:57:34;98021.47;;;-2.40;100.00
49194;BME280;35029;50.804;12.866;2023-01-27T01:00:00;98020.44;;;-2.38;100.00
49194;BME280;35029;50.804;12.866;2023-01-27T01:02:26;98024.59;;;-2.35;100.00
49194;BME280;35029;50.804;12.866;2023-01-27T01:04:51;98027.94;;;-2.33;100.00
49194;BME280;35029;50.804;12.866;2023-01-27T01:07:17;98020.25;;;-2.34;100.00
49194;BME280;35029;50.804;12.866;2023-01-27T01:09:42;98020.84;;;-2.31;100.00
49194;BME280;35029;50.804;12.866;2023-01-27T01:12:08;98030.00;;;-2.38;100.00
49194;BME280;35029;50.804;12.866;2023-01-27T01:14:33;98011.00;;;-2.51;100.00
49194;BME280;35029;50.804;12.866;2023-01-27T01:16:59;98031.88;;;-2.40;100.00
49194;BME280;35029;50.804;12.866;2023-01-27T01:19:25;98029.59;;;-2.45;100.00
49194;BME280;35029;50.804;12.866;2023-01-27T01:21:50;98024.00;;;-2.51;100.00
49194;BME280;35029;50.804;12.866;2023-01-27T01:24:16;98030.22;;;-2.54;100.00
49194;BME280;35029;50.804;12.866;2023-01-27T01:26:42;98030.97;;;-2.52;100.00
49194;BME280;35029;50.804;12.866;2023-01-27T01:29:07;98026.38;;;-2.48;100.00
49194;BME280;35029;50.804;12.866;2023-01-27T01:31:33;98028.56;;;-2.42;100.00
49194;BME280;35029;50.804;12.866;2023-01-27T01:33:58;98025.97;;;-2.42;100.00
49194;BME280;35029;50.804;12.866;2023-01-27T01:36:24;97998.97;;;-2.52;100.00
49194;BME280;35029;50.804;12.866;2023-01-27T01:38:54;98020.78;;;-2.42;100.00
49194;BME280;35029;50.804;12.866;2023-01-27T01:41:20;98005.31;;;-2.57;100.00
49194;BME280;35029;50.804;12.866;2023-01-27T01:43:47;98028.03;;;-2.47;100.00
49194;BME280;35029;50.804;12.866;2023-01-27T01:46:13;97995.78;;;-2.69;100.00
49194;BME280;35029;50.804;12.866;2023-01-27T01:53:39;98006.03;;;-2.55;100.00
49194;BME280;35029;50.804;12.866;2023-01-27T01:56:11;98025.22;;;-2.44;100.00
49194;BME280;35029;50.804;12.866;2023-01-27T01:58:38;98003.44;;;-2.55;100.00
49194;BME280;35029;50.804;12.866;2023-01-27T02:01:06;98004.38;;;-2.56;100.00
49194;BME280;35029;50.804;12.866;2023-01-27T02:03:33;98011.94;;;-2.40;100.00
49194;BME280;35029;50.804;12.866;2023-01-27T02:06:00;98017.13;;;-2.40;100.00
49194;BME280;35029;50.804;12.866;2023-01-27T02:08:35;98016.28;;;-2.40;100.00
49194;BME280;35029;50.804;12.866;2023-01-27T02:11:05;98014.44;;;-2.38;100.00
49194;BME280;35029;50.804;12.866;2023-01-27T02:13:31;98010.78;;;-2.35;100.00
49194;BME280;35029;50.804;12.866;2023-01-27T02:15:56;98019.00;;;-2.42;100.00
49194;BME280;35029;50.804;12.866;2023-01-27T02:18:22;98008.19;;;-2.48;100.00
49194;BME280;35029;50.804;12.866;2023-01-27T02:20:50;98016.09;;;-2.37;100.00
49194;BME280;35029;50.804;12.866;2023-01-27T02:26:33;98011.38;;;-2.32;100.00
49194;BME280;35029;50.804;12.866;2023-01-27T02:29:07;98012.47;;;-2.34;100.00
49194;BME280;35029;50.804;12.866;2023-01-27T02:31:33;98015.25;;;-2.38;100.00
49194;BME280;35029;50.804;12.866;2023-01-27T02:34:03;98015.75;;;-2.32;100.00
49194;BME280;35029;50.804;12.866;2023-01-27T02:36:31;98022.22;;;-2.38;100.00
49194;BME280;35029;50.804;12.866;2023-01-27T02:39:00;98018.88;;;-2.40;100.00
49194;BME280;35029;50.804;12.866;2023-01-27T02:41:35;98009.47;;;-2.41;100.00
49194;BME280;35029;50.804;12.866;2023-01-27T02:44:02;98026.66;;;-2.27;100.00
49194;BME280;35029;50.804;12.866;2023-01-27T02:46:29;98030.06;;;-2.27;100.00
49194;BME280;35029;50.804;12.866;2023-01-27T02:48:54;98021.88;;;-2.33;100.00
49194;BME280;35029;50.804;12.866;2023-01-27T02:51:20;98011.09;;;-2.40;100.00
49194;BME280;35029;50.804;12.866;2023-01-27T02:53:46;98030.19;;;-2.28;100.00
49194;BME280;35029;50.804;12.866;2023-01-27T02:56:12;98030.41;;;-2.31;100.00
49194;BME280;35029;50.804;12.866;2023-01-27T02:58:38;98034.22;;;-2.24;100.00
49194;BME280;35029;50.804;12.866;2023-01-27T03:01:15;98021.78;;;-2.32;100.00
49194;BME280;35029;50.804;12.866;2023-01-27T03:03:41;98028.13;;;-2.36;100.00
49194;BME280;35029;50.804;12.866;2023-01-27T03:06:14;98042.25;;;-2.40;100.00
49194;BME280;35029;50.804;12.866;2023-01-27T03:08:40;98039.06;;;-2.44;100.00
49194;BME280;35029;50.804;12.866;2023-01-27T03:11:06;98038.31;;;-2.46;100.00
49194;BME280;35029;50.804;12.866;2023-01-27T03:13:33;98039.34;;;-2.35;100.00
49194;BME280;35029;50.804;12.866;2023-01-27T03:15:59;98032.72;;;-2.40;100.00
49194;BME280;35029;50.804;12.866;2023-01-27T03:18:44;98039.66;;;-2.40;100.00
49194;BME280;35029;50.804;12.866;2023-01-27T03:21:16;98036.47;;;-2.44;100.00
49194;BME280;35029;50.804;12.866;2023-01-27T03:23:42;98006.34;;;-2.59;100.00
49194;BME280;35029;50.804;12.866;2023-01-27T03:26:10;98041.03;;;-2.34;100.00
49194;BME280;35029;50.804;12.866;2023-01-27T03:28:39;98047.25;;;-2.37;100.00
49194;BME280;35029;50.804;12.866;2023-01-27T03:31:12;98047.38;;;-2.39;100.00
49194;BME280;35029;50.804;12.866;2023-01-27T03:33:49;98040.50;;;-2.40;100.00
49194;BME280;35029;50.804;12.866;2023-01-27T03:36:35;98043.28;;;-2.43;100.00
49194;BME280;35029;50.804;12.866;2023-01-27T03:39:19;98036.88;;;-2.37;100.00
49194;BME280;35029;50.804;12.866;2023-01-27T03:42:03;98036.66;;;-2.47;100.00
49194;BME280;35029;50.804;12.866;2023-01-27T03:44:48;98046.44;;;-2.50;100.00
49194;BME280;35029;50.804;12.866;2023-01-27T03:47:32;98054.75;;;-2.45;100.00
49194;BME280;35029;50.804;12.866;2023-01-27T03:49:58;98047.06;;;-2.60;100.00
49194;BME280;35029;50.804;12.866;2023-01-27T03:52:23;98056.59;;;-2.47;100.00
49194;BME280;35029;50.804;12.866;2023-01-27T03:54:49;98046.31;;;-2.49;100.00
49194;BME280;35029;50.804;12.866;2023-01-27T03:57:14;98010.63;;;-2.71;100.00
49194;BME280;35029;50.804;12.866;2023-01-27T03:59:40;98025.59;;;-2.62;100.00
49194;BME280;35029;50.804;12.866;2023-01-27T04:02:05;98006.88;;;-2.80;100.00
49194;BME280;35029;50.804;12.866;2023-01-27T04:04:50;98056.41;;;-2.57;100.00
49194;BME280;35029;50.804;12.866;2023-01-27T04:07:34;98009.69;;;-2.83;100.00
49194;BME280;35029;50.804;12.866;2023-01-27T04:10:01;98058.06;;;-2.56;100.00
49194;BME280;35029;50.804;12.866;2023-01-27T04:12:27;98047.69;;;-2.56;100.00
49194;BME280;35029;50.804;12.866;2023-01-27T04:14:53;98049.84;;;-2.50;100.00
49194;BME280;35029;50.804;12.866;2023-01-27T04:17:18;98045.69;;;-2.52;100.00
49194;BME280;35029;50.804;12.866;2023-01-27T04:19:45;98044.34;;;-2.58;100.00
49194;BME280;35029;50.804;12.866;2023-01-27T04:22:12;98057.22;;;-2.57;100.00
49194;BME280;35029;50.804;12.866;2023-01-27T04:24:38;98035.22;;;-2.64;100.00
49194;BME280;35029;50.804;12.866;2023-01-27T04:27:06;98056.72;;;-2.49;100.00
49194;BME280;35029;50.804;12.866;2023-01-27T04:29:37;98064.56;;;-2.38;100.00
49194;BME280;35029;50.804;12.866;2023-01-27T04:32:06;98064.69;;;-2.39;100.00
49194;BME280;35029;50.804;12.866;2023-01-27T04:34:33;98028.19;;;-2.62;100.00
49194;BME280;35029;50.804;12.866;2023-01-27T04:37:01;98048.09;;;-2.49;100.00
49194;BME280;35029;50.804;12.866;2023-01-27T04:39:28;98054.19;;;-2.38;100.00
49194;BME280;35029;50.804;12.866;2023-01-27T04:41:55;98056.38;;;-2.44;100.00
49194;BME280;35029;50.804;12.866;2023-01-27T04:44:20;98060.53;;;-2.42;100.00
49194;BME280;35029;50.804;12.866;2023-01-27T04:46:47;98041.53;;;-2.55;100.00
49194;BME280;35029;50.804;12.866;2023-01-27T04:49:13;98049.84;;;-2.50;100.00
49194;BME280;35029;50.804;12.866;2023-01-27T04:51:38;98050.59;;;-2.48;100.00
49194;BME280;35029;50.804;12.866;2023-01-27T04:54:04;98060.56;;;-2.55;100.00
49194;BME280;35029;50.804;12.866;2023-01-27T04:56:38;98060.22;;;-2.50;100.00
49194;BME280;35029;50.804;12.866;2023-01-27T04:59:09;98042.81;;;-2.74;100.00
49194;BME280;35029;50.804;12.866;2023-01-27T05:01:36;98057.13;;;-2.68;100.00
49194;BME280;35029;50.804;12.866;2023-01-27T05:04:02;98070.00;;;-2.53;100.00
49194;BME280;35029;50.804;12.866;2023-01-27T05:06:28;98071.16;;;-2.58;100.00
49194;BME280;35029;50.804;12.866;2023-01-27T05:08:53;98036.06;;;-2.76;100.00
49194;BME280;35029;50.804;12.866;2023-01-27T05:11:19;98084.75;;;-2.54;100.00
49194;BME280;35029;50.804;12.866;2023-01-27T05:13:45;98079.66;;;-2.56;100.00
49194;BME280;35029;50.804;12.866;2023-01-27T05:16:19;98078.84;;;-2.56;100.00
49194;BME280;35029;50.804;12.866;2023-01-27T05:18:46;98049.75;;;-2.74;100.00
49194;BME280;35029;50.804;12.866;2023-01-27T05:21:17;98067.19;;;-2.76;100.00
49194;BME280;35029;50.804;12.866;2023-01-27T05:23:43;98090.47;;;-2.62;100.00
49194;BME280;35029;50.804;12.866;2023-01-27T05:26:14;98085.47;;;-2.65;100.00
49194;BME280;35029;50.804;12.866;2023-01-27T05:28:42;98090.66;;;-2.65;100.00
49194;BME280;35029;50.804;12.866;2023-01-27T05:31:11;98097.63;;;-2.65;100.00
49194;BME280;35029;50.804;12.866;2023-01-27T05:33:38;98095.94;;;-2.66;100.00
49194;BME280;35029;50.804;12.866;2023-01-27T05:36:05;98096.78;;;-2.66;100.00
49194;BME280;35029;50.804;12.866;2023-01-27T05:38:32;98097.72;;;-2.67;100.00
49194;BME280;35029;50.804;12.866;2023-01-27T05:41:00;98102.59;;;-2.62;100.00
49194;BME280;35029;50.804;12.866;2023-01-27T05:43:31;98097.19;;;-2.59;100.00
49194;BME280;35029;50.804;12.866;2023-01-27T05:46:05;98099.50;;;-2.55;100.00
49194;BME280;35029;50.804;12.866;2023-01-27T05:48:36;98098.66;;;-2.55;100.00
49194;BME280;35029;50.804;12.866;2023-01-27T05:51:03;98078.81;;;-2.69;100.00
49194;BME280;35029;50.804;12.866;2023-01-27T05:53:29;98103.66;;;-2.52;100.00
49194;BME280;35029;50.804;12.866;2023-01-27T05:55:54;98111.13;;;-2.47;100.00
49194;BME280;35029;50.804;12.866;2023-01-27T05:58:20;98098.97;;;-2.60;100.00
49194;BME280;35029;50.804;12.866;2023-01-27T06:00:46;98108.00;;;-2.52;100.00
49194;BME280;35029;50.804;12.866;2023-01-27T06:03:12;98103.13;;;-2.57;100.00
49194;BME280;35029;50.804;12.866;2023-01-27T06:05:38;98108.09;;;-2.54;100.00
49194;BME280;35029;50.804;12.866;2023-01-27T06:08:03;98115.50;;;-2.48;100.00
49194;BME280;35029;50.804;12.866;2023-01-27T06:10:29;98109.03;;;-2.55;100.00
49194;BME280;35029;50.804;12.866;2023-01-27T06:12:56;98112.38;;;-2.53;100.00
49194;BME280;35029;50.804;12.866;2023-01-27T06:15:23;98108.94;;;-2.53;100.00
49194;BME280;35029;50.804;12.866;2023-01-27T06:17:48;98111.63;;;-2.55;100.00
49194;BME280;35029;50.804;12.866;2023-01-27T06:20:14;98080.88;;;-2.74;100.00
49194;BME280;35029;50.804;12.866;2023-01-27T06:22:40;98113.81;;;-2.49;100.00
49194;BME280;35029;50.804;12.866;2023-01-27T06:25:06;98098.03;;;-2.59;100.00
49194;BME280;35029;50.804;12.866;2023-01-27T06:27:31;98124.09;;;-2.47;100.00
49194;BME280;35029;50.804;12.866;2023-01-27T06:29:57;98126.06;;;-2.38;100.00
49194;BME280;35029;50.804;12.866;2023-01-27T06:32:22;98129.91;;;-2.31;100.00
49194;BME280;35029;50.804;12.866;2023-01-27T06:34:48;98132.94;;;-2.37;100.00
49194;BME280;35029;50.804;12.866;2023-01-27T06:37:13;98131.91;;;-2.34;100.00
49194;BME280;35029;50.804;12.866;2023-01-27T06:39:39;98138.63;;;-2.32;100.00
49194;BME280;35029;50.804;12.866;2023-01-27T06:42:05;98143.81;;;-2.32;100.00
49194;BME280;35029;50.804;12.866;2023-01-27T06:44:31;98126.50;;;-2.31;100.00
49194;BME280;35029;50.804;12.866;2023-01-27T06:46:57;98136.25;;;-2.35;100.00
49194;BME280;35029;50.804;12.866;2023-01-27T06:49:22;98121.50;;;-2.47;100.00
49194;BME280;35029;50.804;12.866;2023-01-27T06:51:48;98141.53;;;-2.36;100.00
49194;BME280;35029;50.804;12.866;2023-01-27T06:54:13;98153.28;;;-2.31;100.00
49194;BME280;35029;50.804;12.866;2023-01-27T06:56:39;98146.63;;;-2.35;100.00
49194;BME280;35029;50.804;12.866;2023-01-27T06:59:04;98160.84;;;-2.28;100.00
49194;BME280;35029;50.804;12.866;2023-01-27T07:01:30;98115.78;;;-2.52;100.00
49194;BME280;35029;50.804;12.866;2023-01-27T07:03:56;98153.16;;;-2.29;100.00
49194;BME280;35029;50.804;12.866;2023-01-27T07:06:21;98141.03;;;-2.42;100.00
49194;BME280;35029;50.804;12.866;2023-01-27T07:08:47;98153.50;;;-2.34;100.00
49194;BME280;35029;50.804;12.866;2023-01-27T07:11:14;98127.31;;;-2.57;100.00
49194;BME280;35029;50.804;12.866;2023-01-27T07:13:40;98121.41;;;-2.59;100.00
49194;BME280;35029;50.804;12.866;2023-01-27T07:16:06;98153.06;;;-2.41;100.00
49194;BME280;35029;50.804;12.866;2023-01-27T07:18:31;98155.88;;;-2.44;100.00
49194;BME280;35029;50.804;12.866;2023-01-27T07:20:57;98147.06;;;-2.41;100.00
49194;BME280;35029;50.804;12.866;2023-01-27T07:23:22;98136.75;;;-2.43;100.00
49194;BME280;35029;50.804;12.866;2023-01-27T07:25:47;98142.06;;;-2.44;100.00
49194;BME280;35029;50.804;12.866;2023-01-27T07:28:13;98148.09;;;-2.44;100.00
49194;BME280;35029;50.804;12.866;2023-01-27T07:30:38;98108.50;;;-2.73;100.00
49194;BME280;35029;50.804;12.866;2023-01-27T07:33:06;98152.22;;;-2.54;100.00
49194;BME280;35029;50.804;12.866;2023-01-27T07:35:31;98154.44;;;-2.48;100.00
49194;BME280;35029;50.804;12.866;2023-01-27T07:37:57;98153.50;;;-2.34;100.00
49194;BME280;35029;50.804;12.866;2023-01-27T07:40:23;98152.16;;;-2.14;100.00
49194;BME280;35029;50.804;12.866;2023-01-27T07:42:49;98159.09;;;-2.14;100.00
49194;BME280;35029;50.804;12.866;2023-01-27T07:45:14;98173.44;;;-2.34;100.00
49194;BME280;35029;50.804;12.866;2023-01-27T07:47:40;98168.75;;;-2.29;100.00
49194;BME280;35029;50.804;12.866;2023-01-27T07:50:06;98164.69;;;-2.33;100.00
49194;BME280;35029;50.804;12.866;2023-01-27T07:52:32;98181.31;;;-2.36;100.00
49194;BME280;35029;50.804;12.866;2023-01-27T07:54:57;98184.75;;;-2.35;100.00
49194;BME280;35029;50.804;12.866;2023-01-27T07:57:23;98187.13;;;-2.32;100.00
49194;BME280;35029;50.804;12.866;2023-01-27T07:59:48;98188.06;;;-2.33;100.00
49194;BME280;35029;50.804;12.866;2023-01-27T08:02:19;98190.47;;;-2.30;100.00
49194;BME280;35029;50.804;12.866;2023-01-27T08:04:47;98189.53;;;-2.29;100.00
49194;BME280;35029;50.804;12.866;2023-01-27T08:07:13;98192.44;;;-2.21;100.00
49194;BME280;35029;50.804;12.866;2023-01-27T08:09:38;98206.97;;;-2.18;100.00
49194;BME280;35029;50.804;12.866;2023-01-27T08:12:05;98201.78;;;-2.18;100.00
49194;BME280;35029;50.804;12.866;2023-01-27T08:14:31;98201.19;;;-2.22;100.00
49194;BME280;35029;50.804;12.866;2023-01-27T08:17:03;98205.63;;;-2.24;100.00
49194;BME280;35029;50.804;12.866;2023-01-27T08:19:29;98207.09;;;-2.20;100.00
49194;BME280;35029;50.804;12.866;2023-01-27T08:21:55;98200.16;;;-2.19;100.00
49194;BME280;35029;50.804;12.866;2023-01-27T08:24:20;98210.44;;;-2.18;100.00
49194;BME280;35029;50.804;12.866;2023-01-27T08:26:46;98212.28;;;-2.20;100.00
49194;BME280;35029;50.804;12.866;2023-01-27T08:29:11;98216.56;;;-2.19;100.00
49194;BME280;35029;50.804;12.866;2023-01-27T08:31:37;98219.97;;;-2.18;100.00
49194;BME280;35029;50.804;12.866;2023-01-27T08:34:02;98223.53;;;-2.19;100.00
49194;BME280;35029;50.804;12.866;2023-01-27T08:36:28;98232.13;;;-2.19;100.00
49194;BME280;35029;50.804;12.866;2023-01-27T08:38:54;98222.88;;;-2.23;100.00
49194;BME280;35029;50.804;12.866;2023-01-27T08:41:25;98209.06;;;-2.24;100.00
49194;BME280;35029;50.804;12.866;2023-01-27T08:43:52;98221.63;;;-2.17;100.00
49194;BME280;35029;50.804;12.866;2023-01-27T08:46:18;98228.19;;;-2.12;100.00
49194;BME280;35029;50.804;12.866;2023-01-27T08:48:43;98223.19;;;-2.02;100.00
49194;BME280;35029;50.804;12.866;2023-01-27T08:51:12;98223.81;;;-1.98;100.00
49194;BME280;35029;50.804;12.866;2023-01-27T08:53:38;98217.28;;;-2.04;100.00
49194;BME280;35029;50.804;12.866;2023-01-27T08:56:06;98220.19;;;-1.96;100.00
49194;BME280;35029;50.804;12.866;2023-01-27T08:58:32;98219.44;;;-1.98;100.00
49194;BME280;35029;50.804;12.866;2023-01-27T09:00:59;98231.00;;;-2.02;100.00
49194;BME280;35029;50.804;12.866;2023-01-27T09:03:26;98229.84;;;-1.98;100.00
49194;BME280;35029;50.804;12.866;2023-01-27T09:05:52;98228.69;;;-1.94;100.00
49194;BME280;35029;50.804;12.866;2023-01-27T09:08:17;98222.69;;;-1.94;100.00
49194;BME280;35029;50.804;12.866;2023-01-27T09:10:43;98228.69;;;-1.94;100.00
49194;BME280;35029;50.804;12.866;2023-01-27T09:13:08;98224.56;;;-1.96;100.00
49194;BME280;35029;50.804;12.866;2023-01-27T09:15:35;98238.38;;;-1.96;100.00
49194;BME280;35029;50.804;12.866;2023-01-27T09:18:01;98223.19;;;-2.02;100.00
49194;BME280;35029;50.804;12.866;2023-01-27T09:20:27;98228.63;;;-1.92;100.00
49194;BME280;35029;50.804;12.866;2023-01-27T09:22:55;98243.38;;;-1.93;100.00
49194;BME280;35029;50.804;12.866;2023-01-27T09:25:21;98236.81;;;-1.85;100.00
49194;BME280;35029;50.804;12.866;2023-01-27T09:27:47;98231.16;;;-1.66;100.00
49194;BME280;35029;50.804;12.866;2023-01-27T09:30:14;98239.81;;;-1.79;100.00
49194;BME280;35029;50.804;12.866;2023-01-27T09:32:40;98239.94;;;-1.80;100.00
49194;BME280;35029;50.804;12.866;2023-01-27T09:35:06;98246.56;;;-1.76;100.00
49194;BME280;35029;50.804;12.866;2023-01-27T09:37:41;98245.25;;;-1.69;100.00
49194;BME280;35029;50.804;12.866;2023-01-27T09:40:27;98249.50;;;-1.81;100.00
49194;BME280;35029;50.804;12.866;2023-01-27T09:45:38;98254.06;;;-1.84;100.00
49194;BME280;35029;50.804;12.866;2023-01-27T09:48:24;98256.25;;;-1.78;100.00
49194;BME280;35029;50.804;12.866;2023-01-27T09:50:56;98249.59;;;-1.70;100.00
49194;BME280;35029;50.804;12.866;2023-01-27T09:53:47;98255.31;;;-1.64;100.00
49194;BME280;35029;50.804;12.866;2023-01-27T09:59:38;98251.34;;;-1.57;100.00
49194;BME280;35029;50.804;12.866;2023-01-27T10:02:29;98250.81;;;-1.49;100.00
49194;BME280;35029;50.804;12.866;2023-01-27T10:13:14;98246.53;;;-1.50;100.00
49194;BME280;35029;50.804;12.866;2023-01-27T10:15:57;98236.47;;;-1.68;100.00
49194;BME280;35029;50.804;12.866;2023-01-27T10:26:44;98238.22;;;-1.56;100.00
49194;BME280;35029;50.804;12.866;2023-01-27T10:29:23;98240.19;;;-1.46;100.00
49194;BME280;35029;50.804;12.866;2023-01-27T10:37:19;98241.88;;;-1.58;100.00
49194;BME280;35029;50.804;12.866;2023-01-27T10:40:07;98246.69;;;-1.65;100.00
49194;BME280;35029;50.804;12.866;2023-01-27T10:45:29;98248.53;;;-1.54;100.00
49194;BME280;35029;50.804;12.866;2023-01-27T10:51:08;98248.94;;;-1.47;100.00
49194;BME280;35029;50.804;12.866;2023-01-27T10:54:09;98253.34;;;-1.61;100.00
49194;BME280;35029;50.804;12.866;2023-01-27T10:56:53;98242.50;;;-1.55;100.00
49194;BME280;35029;50.804;12.866;2023-01-27T11:02:17;98245.09;;;-1.55;100.00
49194;BME280;35029;50.804;12.866;2023-01-27T11:04:55;98234.50;;;-1.64;100.00
49194;BME280;35029;50.804;12.866;2023-01-27T11:07:23;98248.44;;;-1.52;100.00
49194;BME280;35029;50.804;12.866;2023-01-27T11:09:57;98245.72;;;-1.51;100.00
49194;BME280;35029;50.804;12.866;2023-01-27T11:12:33;98240.41;;;-1.49;100.00
49194;BME280;35029;50.804;12.866;2023-01-27T11:15:01;98249.75;;;-1.34;100.00
49194;BME280;35029;50.804;12.866;2023-01-27T11:18:18;98241.81;;;-1.32;100.00
49194;BME280;35029;50.804;12.866;2023-01-27T11:20:49;98245.69;;;-1.25;100.00
49194;BME280;35029;50.804;12.866;2023-01-27T11:23:20;98248.41;;;-1.40;100.00
49194;BME280;35029;50.804;12.866;2023-01-27T11:26:05;98252.03;;;-1.42;100.00
49194;BME280;35029;50.804;12.866;2023-01-27T11:29:04;98255.06;;;-1.36;100.00
49194;BME280;35029;50.804;12.866;2023-01-27T11:36:42;98249.13;;;-1.38;100.00
49194;BME280;35029;50.804;12.866;2023-01-27T11:39:11;98237.06;;;-1.51;100.00
49194;BME280;35029;50.804;12.866;2023-01-27T11:41:46;98249.88;;;-1.48;100.00
49194;BME280;35029;50.804;12.866;2023-01-27T11:44:23;98246.25;;;-1.46;100.00
49194;BME280;35029;50.804;12.866;2023-01-27T11:46:49;98248.50;;;-1.41;100.00
49194;BME280;35029;50.804;12.866;2023-01-27T11:49:20;98247.69;;;-1.42;100.00
49194;BME280;35029;50.804;12.866;2023-01-27T11:51:47;98246.63;;;-1.39;100.00
49194;BME280;35029;50.804;12.866;2023-01-27T11:54:24;98249.22;;;-1.39;100.00
49194;BME280;35029;50.804;12.866;2023-01-27T11:56:52;98235.44;;;-1.52;100.00
49194;BME280;35029;50.804;12.866;2023-01-27T12:01:55;98243.81;;;-1.36;100.00
49194;BME280;35029;50.804;12.866;2023-01-27T12:07:09;98241.13;;;-1.34;100.00
49194;BME280;35029;50.804;12.866;2023-01-27T12:09:39;98239.50;;;-1.24;100.00
49194;BME280;35029;50.804;12.866;2023-01-27T12:14:34;98235.00;;;-1.09;100.00
49194;BME280;35029;50.804;12.866;2023-01-27T12:17:01;98236.38;;;-1.16;100.00
49194;BME280;35029;50.804;12.866;2023-01-27T12:19:35;98235.16;;;-1.24;100.00
49194;BME280;35029;50.804;12.866;2023-01-27T12:22:10;98223.31;;;-1.28;100.00
49194;BME280;35029;50.804;12.866;2023-01-27T12:24:45;98219.31;;;-1.21;100.00
49194;BME280;35029;50.804;12.866;2023-01-27T12:27:22;98215.78;;;-1.20;100.00
49194;BME280;35029;50.804;12.866;2023-01-27T12:29:57;98205.38;;;-1.20;100.00
49194;BME280;35029;50.804;12.866;2023-01-27T12:32:38;98212.72;;;-1.13;100.00
49194;BME280;35029;50.804;12.866;2023-01-27T12:35:05;98205.97;;;-1.16;100.00
49194;BME280;35029;50.804;12.866;2023-01-27T12:37:35;98197.25;;;-1.15;100.00
49194;BME280;35029;50.804;12.866;2023-01-27T12:40:06;98206.28;;;-1.08;100.00
49194;BME280;35029;50.804;12.866;2023-01-27T12:42:35;98198.13;;;-1.03;100.00
49194;BME280;35029;50.804;12.866;2023-01-27T12:45:24;98199.53;;;-1.10;100.00
49194;BME280;35029;50.804;12.866;2023-01-27T12:48:00;98197.25;;;-1.15;100.00
49194;BME280;35029;50.804;12.866;2023-01-27T12:50:28;98204.81;;;-1.12;100.00
49194;BME280;35029;50.804;12.866;2023-01-27T12:53:12;98197.00;;;-1.12;100.00
49194;BME280;35029;50.804;12.866;2023-01-27T12:55:40;98192.88;;;-1.14;100.00
49194;BME280;35029;50.804;12.866;2023-01-27T12:58:38;98196.72;;;-1.20;100.00
49194;BME280;35029;50.804;12.866;2023-01-27T13:03:52;98195.78;;;-1.19;100.00
49194;BME280;35029;50.804;12.866;2023-01-27T13:06:26;98192.59;;;-1.23;100.00
49194;BME280;35029;50.804;12.866;2023-01-27T13:08:53;98177.13;;;-1.37;100.00
49194;BME280;35029;50.804;12.866;2023-01-27T13:11:29;98197.69;;;-1.21;100.00
49194;BME280;35029;50.804;12.866;2023-01-27T13:13:56;98204.66;;;-1.22;100.00
49194;BME280;35029;50.804;12.866;2023-01-27T13:16:26;98202.78;;;-1.20;100.00
49194;BME280;35029;50.804;12.866;2023-01-27T13:18:55;98194.53;;;-1.13;100.00
49194;BME280;35029;50.804;12.866;2023-01-27T13:21:25;98210.13;;;-1.13;100.00
49194;BME280;35029;50.804;12.866;2023-01-27T13:23:53;98204.34;;;-1.17;100.00
49194;BME280;35029;50.804;12.866;2023-01-27T13:26:27;98207.75;;;-1.16;100.00
49194;BME280;35029;50.804;12.866;2023-01-27T13:34:37;98201.91;;;-1.07;100.00
49194;BME280;35029;50.804;12.866;2023-01-27T13:37:27;98201.16;;;-1.09;100.00
49194;BME280;35029;50.804;12.866;2023-01-27T13:40:02;98207.59;;;-1.02;100.00
49194;BME280;35029;50.804;12.866;2023-01-27T13:47:32;98198.53;;;-0.96;100.00
49194;BME280;35029;50.804;12.866;2023-01-27T13:52:32;98184.34;;;-1.16;100.00
49194;BME280;35029;50.804;12.866;2023-01-27T13:54:58;98209.16;;;-0.99;100.00
49194;BME280;35029;50.804;12.866;2023-01-27T14:00:08;98221.28;;;-0.87;100.00
49194;BME280;35029;50.804;12.866;2023-01-27T14:06:49;98220.72;;;-0.79;100.00
49194;BME280;35029;50.804;12.866;2023-01-27T14:11:37;98222.72;;;-0.83;100.00
49194;BME280;35029;50.804;12.866;2023-01-27T14:22:17;98201.59;;;-0.67;100.00